createdAt,value
2019-03-06T00:00:51.886Z,37.15
2019-03-06T00:03:48.330Z,37.53
2019-03-06T00:06:43.863Z,37.45
2019-03-06T00:09:39.339Z,37.42
2019-03-06T00:12:34.563Z,38.45
2019-03-06T00:15:29.987Z,38.88
2019-03-06T00:18:25.461Z,41.20
2019-03-06T00:21:20.983Z,39.90
2019-03-06T00:24:17.046Z,42.35
2019-03-06T00:27:13.519Z,41.80
2019-03-06T00:30:10.377Z,39.90
2019-03-06T00:33:05.738Z,40.92
2019-03-06T00:36:01.441Z,41.37
2019-03-06T00:38:57.636Z,42.35
2019-03-06T00:41:55.473Z,42.80
2019-03-06T00:44:50.830Z,48.40
2019-03-06T00:47:46.685Z,49.42
2019-03-06T00:50:43.570Z,50.75
2019-03-06T00:53:39.041Z,46.88
2019-03-06T00:56:35.085Z,48.45
2019-03-06T00:59:30.762Z,48.78
2019-03-06T01:02:26.321Z,50.80
2019-03-06T01:05:22.299Z,50.15
2019-03-06T01:08:17.295Z,51.95
2019-03-06T01:11:14.213Z,52.48
2019-03-06T01:14:09.811Z,54.75
2019-03-06T01:17:05.350Z,53.73
2019-03-06T01:20:01.012Z,54.58
2019-03-06T01:22:56.527Z,54.00
2019-03-06T01:25:51.461Z,53.20
2019-03-06T01:28:47.137Z,55.43
2019-03-06T01:31:42.271Z,53.87
2019-03-06T01:34:55.524Z,56.33
2019-03-06T01:38:12.221Z,62.62
2019-03-06T01:41:25.788Z,60.05
2019-03-06T01:44:24.601Z,62.90
2019-03-06T01:47:20.318Z,65.20
2019-03-06T01:50:17.683Z,66.62
2019-03-06T01:53:12.576Z,62.00
2019-03-06T01:56:08.302Z,56.08
2019-03-06T01:59:03.991Z,51.98
2019-03-06T02:01:59.839Z,46.30
2019-03-06T02:04:54.470Z,45.90
2019-03-06T02:07:50.135Z,53.58
2019-03-06T02:10:46.038Z,44.08
2019-03-06T02:13:42.316Z,44.75
2019-03-06T02:16:37.689Z,44.30
2019-03-06T02:19:33.265Z,45.08
2019-03-06T02:22:29.247Z,46.18
2019-03-06T02:25:24.770Z,47.80
2019-03-06T02:28:20.762Z,48.38
2019-03-06T02:31:15.897Z,46.40
2019-03-06T02:34:11.544Z,46.30
2019-03-06T02:37:06.805Z,44.23
2019-03-06T02:40:02.710Z,44.10
2019-03-06T02:42:58.856Z,44.13
2019-03-06T02:45:56.102Z,43.28
2019-03-06T02:48:50.418Z,42.60
2019-03-06T02:51:46.433Z,42.23
2019-03-06T02:54:41.370Z,40.45
2019-03-06T02:57:37.708Z,39.33
2019-03-06T03:00:54.202Z,39.45
2019-03-06T03:04:18.489Z,37.17
2019-03-06T03:07:17.702Z,36.65
2019-03-06T03:10:14.513Z,34.55
2019-03-06T03:13:10.695Z,37.08
2019-03-06T03:16:06.182Z,31.40
2019-03-06T03:19:01.849Z,28.35
2019-03-06T03:21:58.189Z,27.20
2019-03-06T03:24:53.539Z,28.45
2019-03-06T03:27:49.188Z,26.45
2019-03-06T03:30:45.262Z,26.80
2019-03-06T03:33:40.702Z,27.37
2019-03-06T03:36:36.394Z,27.45
2019-03-06T03:39:31.503Z,28.20
2019-03-06T03:42:26.331Z,28.35
2019-03-06T03:45:22.202Z,32.33
2019-03-06T03:48:17.744Z,28.70
2019-03-06T03:51:13.135Z,27.30
2019-03-06T03:54:08.338Z,27.37
2019-03-06T03:57:04.413Z,28.27
2019-03-06T04:00:00.309Z,27.35
2019-03-06T04:02:55.432Z,26.82
2019-03-06T04:05:51.428Z,27.17
2019-03-06T04:23:33.511Z,27.27
2019-03-06T04:26:29.071Z,26.27
2019-03-06T04:29:24.599Z,27.73
2019-03-06T04:32:19.920Z,28.67
2019-03-06T04:35:15.021Z,26.02
2019-03-06T04:38:10.706Z,25.65
2019-03-06T04:41:06.596Z,28.85
2019-03-06T04:44:01.822Z,25.05
2019-03-06T04:46:56.997Z,27.05
2019-03-06T04:49:52.916Z,26.90
2019-03-06T04:52:48.351Z,28.47
2019-03-06T04:55:44.050Z,31.62
2019-03-06T05:03:29.559Z,25.68
2019-03-06T05:06:25.097Z,27.42
2019-03-06T05:09:20.395Z,27.17
2019-03-06T05:12:17.059Z,26.73
2019-03-06T05:15:30.159Z,27.55
2019-03-06T05:18:55.989Z,27.77
2019-03-06T05:22:01.336Z,25.57
2019-03-06T05:25:26.270Z,26.65
2019-03-06T05:28:33.151Z,25.27
2019-03-06T05:31:28.842Z,26.30
2019-03-06T05:34:24.963Z,26.20
2019-03-06T05:38:03.671Z,26.73
2019-03-06T05:41:01.029Z,28.90
2019-03-06T05:44:00.665Z,28.23
2019-03-06T05:46:57.606Z,29.00
2019-03-06T05:49:53.611Z,27.52
2019-03-06T05:52:49.684Z,26.42
2019-03-06T05:55:44.630Z,27.25
2019-03-06T05:58:40.220Z,26.80
2019-03-06T06:01:35.994Z,27.42
2019-03-06T06:04:32.134Z,26.80
2019-03-06T06:07:30.140Z,33.65
2019-03-06T06:10:25.926Z,28.65
2019-03-06T06:13:21.621Z,26.90
2019-03-06T06:16:31.172Z,30.20
2019-03-06T06:19:27.103Z,26.60
2019-03-06T06:22:32.590Z,26.75
2019-03-06T06:25:28.306Z,26.97
2019-03-06T06:28:26.753Z,27.80
2019-03-06T06:31:22.677Z,28.83
2019-03-06T06:34:18.707Z,28.38
2019-03-06T06:37:14.620Z,27.82
2019-03-06T06:40:17.427Z,29.63
2019-03-06T06:43:14.847Z,28.30
2019-03-06T06:46:11.218Z,27.65
2019-03-06T06:49:07.666Z,27.85
2019-03-06T06:52:37.758Z,28.50
2019-03-06T06:56:19.987Z,28.70
2019-03-06T07:00:03.341Z,27.87
2019-03-06T07:03:49.342Z,28.98
2019-03-06T07:07:04.857Z,29.12
2019-03-06T07:10:18.864Z,30.90
2019-03-06T07:13:41.356Z,29.27
2019-03-06T07:16:57.521Z,32.33
2019-03-06T07:20:09.185Z,32.00
2019-03-06T07:23:25.201Z,31.57
2019-03-06T07:26:32.748Z,32.23
2019-03-06T07:29:38.762Z,31.73
2019-03-06T07:32:56.525Z,33.10
2019-03-06T07:36:15.814Z,32.88
2019-03-06T07:39:24.652Z,32.03
2019-03-06T07:42:40.039Z,32.08
2019-03-06T07:46:00.401Z,32.28
2019-03-06T07:49:20.107Z,32.73
2019-03-06T07:52:41.322Z,31.60
2019-03-06T07:56:06.428Z,33.73
2019-03-06T07:59:05.602Z,33.53
2019-03-06T08:02:03.677Z,32.65
2019-03-06T08:04:59.493Z,33.42
2019-03-06T08:07:55.282Z,29.63
2019-03-06T08:10:51.062Z,33.70
2019-03-06T08:13:54.953Z,35.95
2019-03-06T08:17:23.304Z,32.98
2019-03-06T08:20:34.901Z,32.67
2019-03-06T08:23:47.691Z,35.40
2019-03-06T08:26:42.476Z,28.67
2019-03-06T08:29:38.097Z,30.40
2019-03-06T08:32:34.819Z,29.05
2019-03-06T08:35:29.720Z,32.00
2019-03-06T08:38:25.441Z,30.48
2019-03-06T08:41:20.781Z,32.63
2019-03-06T08:44:16.040Z,29.60
2019-03-06T08:47:35.476Z,28.85
2019-03-06T08:50:47.144Z,30.35
2019-03-06T08:53:50.626Z,29.77
2019-03-06T08:56:55.639Z,28.52
2019-03-06T09:00:11.513Z,30.75
2019-03-06T09:03:24.465Z,30.48
2019-03-06T09:06:29.318Z,29.52
2019-03-06T09:09:51.456Z,27.52
2019-03-06T09:13:04.855Z,26.23
2019-03-06T09:16:18.779Z,27.17
2019-03-06T09:19:34.149Z,25.75
2019-03-06T09:22:49.282Z,25.52
2019-03-06T09:26:16.227Z,27.98
2019-03-06T09:29:24.754Z,26.15
2019-03-06T09:32:54.373Z,24.47
2019-03-06T09:36:07.715Z,26.37
2019-03-06T09:39:21.023Z,26.90
2019-03-06T09:42:54.064Z,26.60
2019-03-06T09:46:23.927Z,26.45
2019-03-06T09:49:37.742Z,28.12
2019-03-06T09:52:58.876Z,27.32
2019-03-06T09:56:01.315Z,25.97
2019-03-06T09:59:36.771Z,26.48
2019-03-06T10:03:05.806Z,26.42
2019-03-06T10:06:20.495Z,25.25
2019-03-06T10:10:12.636Z,25.40
2019-03-06T10:13:42.487Z,26.68
2019-03-06T10:16:50.553Z,26.82
2019-03-06T10:20:01.519Z,26.23
2019-03-06T10:23:00.950Z,27.35
2019-03-06T10:25:57.556Z,26.27
2019-03-06T10:28:56.450Z,26.97
2019-03-06T10:31:52.895Z,21.77
2019-03-06T10:35:02.889Z,28.95
2019-03-06T10:38:03.786Z,27.93
2019-03-06T10:41:15.997Z,27.07
2019-03-06T10:44:12.617Z,27.02
2019-03-06T10:47:12.220Z,26.65
2019-03-06T10:50:16.510Z,30.43
2019-03-06T10:53:14.953Z,27.50
2019-03-06T10:56:12.807Z,27.50
2019-03-06T10:59:15.227Z,26.10
2019-03-06T11:02:33.766Z,27.30
2019-03-06T11:05:45.107Z,26.17
2019-03-06T11:09:59.628Z,26.68
2019-03-06T11:13:04.632Z,28.87
2019-03-06T11:16:37.042Z,32.35
2019-03-06T11:19:40.608Z,25.37
2019-03-06T11:22:39.945Z,25.70
2019-03-06T11:25:36.170Z,23.10
2019-03-06T11:28:49.297Z,24.35
2019-03-06T11:31:39.249Z,25.25
2019-03-06T11:34:42.929Z,23.77
2019-03-06T11:37:38.684Z,24.40
2019-03-06T11:40:41.832Z,25.10
2019-03-06T11:43:41.081Z,24.43
2019-03-06T11:46:41.255Z,24.90
2019-03-06T11:54:15.829Z,24.82
2019-03-06T11:57:48.904Z,24.92
2019-03-06T12:00:47.354Z,25.05
2019-03-06T12:03:42.767Z,25.15
2019-03-06T12:06:38.946Z,25.37
2019-03-06T12:09:37.407Z,26.35
2019-03-06T12:12:32.682Z,26.87
2019-03-06T12:15:28.194Z,29.95
2019-03-06T12:18:48.208Z,27.32
2019-03-06T12:21:49.307Z,27.42
2019-03-06T12:24:44.821Z,26.75
2019-03-06T12:27:39.929Z,26.57
2019-03-06T12:30:35.583Z,27.00
2019-03-06T12:33:32.255Z,29.30
2019-03-06T12:36:27.244Z,25.10
2019-03-06T12:39:22.706Z,26.82
2019-03-06T12:42:18.153Z,25.23
2019-03-06T12:45:16.579Z,25.92
2019-03-06T12:48:13.182Z,27.93
2019-03-06T12:51:09.887Z,26.82
2019-03-06T12:54:05.434Z,28.12
2019-03-06T12:57:01.488Z,27.02
2019-03-06T12:59:56.912Z,26.97
2019-03-06T13:02:52.192Z,31.73
2019-03-06T13:05:47.366Z,33.80
2019-03-06T13:08:51.731Z,30.88
2019-03-06T13:11:49.949Z,32.25
2019-03-06T13:14:45.115Z,32.48
2019-03-06T13:17:40.414Z,33.73
2019-03-06T13:20:35.841Z,33.75
2019-03-06T13:23:32.421Z,34.67
2019-03-06T13:26:32.182Z,35.13
2019-03-06T13:29:28.188Z,36.40
2019-03-06T13:33:20.759Z,37.20
2019-03-06T13:36:16.440Z,39.10
2019-03-06T13:39:13.506Z,36.77
2019-03-06T13:42:08.415Z,38.83
2019-03-06T13:45:03.526Z,36.30
2019-03-06T13:47:59.081Z,35.15
2019-03-06T13:50:55.556Z,35.98
2019-03-06T13:53:51.438Z,37.30
2019-03-06T13:56:49.279Z,37.93
2019-03-06T13:59:44.302Z,35.65
2019-03-06T14:02:39.662Z,36.33
2019-03-06T14:05:36.381Z,36.10
2019-03-06T14:08:31.742Z,40.00
2019-03-06T14:11:27.801Z,35.03
2019-03-06T14:14:23.374Z,40.67
2019-03-06T14:17:18.814Z,43.63
2019-03-06T14:20:14.865Z,44.70
2019-03-06T14:23:10.242Z,40.52
2019-03-06T14:26:20.179Z,42.08
2019-03-06T14:29:18.311Z,41.63
2019-03-06T14:32:16.135Z,41.05
2019-03-06T14:35:11.575Z,44.45
2019-03-06T14:38:07.122Z,46.77
2019-03-06T14:41:02.718Z,43.48
2019-03-06T14:43:58.295Z,43.10
2019-03-06T14:46:53.931Z,40.30
2019-03-06T14:49:48.944Z,40.55
2019-03-06T14:52:43.894Z,40.83
2019-03-06T14:55:39.029Z,41.53
2019-03-06T14:58:34.447Z,39.27
2019-03-06T15:01:29.799Z,36.63
2019-03-06T15:04:24.768Z,32.38
2019-03-06T15:07:20.106Z,28.45
2019-03-06T15:10:17.022Z,30.97
2019-03-06T15:13:12.295Z,30.85
2019-03-06T15:16:07.953Z,31.60
2019-03-06T15:19:03.433Z,30.20
2019-03-06T15:21:58.689Z,32.98
2019-03-06T15:24:53.869Z,35.78
2019-03-06T15:27:50.382Z,28.73
2019-03-06T15:30:45.704Z,28.83
2019-03-06T15:33:41.570Z,31.90
2019-03-06T15:36:36.584Z,25.95
2019-03-06T15:39:45.674Z,25.85
2019-03-06T15:42:33.293Z,28.95
2019-03-06T15:45:32.917Z,30.80
2019-03-06T15:48:27.792Z,30.68
2019-03-06T15:51:23.211Z,28.50
2019-03-06T15:54:18.829Z,33.63
2019-03-06T15:57:13.801Z,30.37
2019-03-06T16:00:11.194Z,28.07
2019-03-06T16:03:07.634Z,27.93
2019-03-06T16:06:02.789Z,29.12
2019-03-06T16:08:57.965Z,28.55
2019-03-06T16:11:53.839Z,30.85
2019-03-06T16:14:52.680Z,28.87
2019-03-06T16:17:47.970Z,28.80
2019-03-06T16:20:43.477Z,27.82
2019-03-06T16:23:39.002Z,26.00
2019-03-06T16:26:34.717Z,27.48
2019-03-06T16:29:30.233Z,27.55
2019-03-06T16:32:25.538Z,26.62
2019-03-06T16:35:20.952Z,25.48
2019-03-06T16:38:16.235Z,24.10
2019-03-06T16:41:11.173Z,23.67
2019-03-06T16:44:07.104Z,22.87
2019-03-06T16:47:06.614Z,24.10
2019-03-06T16:49:59.856Z,26.50
2019-03-06T16:52:55.510Z,26.20
2019-03-06T16:55:51.321Z,24.37
2019-03-06T16:58:46.195Z,25.00
2019-03-06T17:01:41.476Z,24.82
2019-03-06T17:04:37.083Z,22.77
2019-03-06T17:07:32.812Z,24.87
2019-03-06T17:10:28.870Z,23.65
2019-03-06T17:13:24.087Z,25.57
2019-03-06T17:16:27.633Z,25.48
2019-03-06T17:19:23.471Z,25.82
2019-03-06T17:22:19.108Z,25.92
2019-03-06T17:25:14.972Z,26.60
2019-03-06T17:28:11.448Z,25.23
2019-03-06T17:31:07.745Z,25.75
2019-03-06T17:34:03.947Z,24.43
2019-03-06T17:37:01.303Z,25.43
2019-03-06T17:39:55.527Z,24.32
2019-03-06T17:42:51.263Z,23.80
2019-03-06T17:45:46.211Z,23.45
2019-03-06T17:48:41.314Z,22.80
2019-03-06T17:51:36.469Z,23.42
2019-03-06T17:54:31.245Z,23.07
2019-03-06T17:57:26.207Z,23.07
2019-03-06T18:00:23.354Z,23.10
2019-03-06T18:03:22.419Z,23.77
2019-03-06T18:06:17.836Z,24.27
2019-03-06T18:09:13.852Z,29.72
2019-03-06T18:12:08.727Z,31.12
2019-03-06T18:15:03.889Z,32.17
2019-03-06T18:17:59.122Z,32.80
2019-03-06T18:20:54.436Z,29.67
2019-03-06T18:23:49.536Z,27.65
2019-03-06T18:26:44.636Z,26.73
2019-03-06T18:29:40.384Z,26.23
2019-03-06T18:32:35.656Z,26.50
2019-03-06T18:35:30.853Z,26.50
2019-03-06T18:38:25.936Z,28.38
2019-03-06T18:41:21.106Z,29.23
2019-03-06T18:44:16.973Z,30.48
2019-03-06T18:47:12.612Z,30.92
2019-03-06T18:50:08.265Z,33.05
2019-03-06T18:53:02.878Z,33.10
2019-03-06T18:55:58.117Z,34.38
2019-03-06T18:58:53.713Z,35.58
2019-03-06T19:01:49.313Z,35.50
2019-03-06T19:04:44.259Z,36.95
2019-03-06T19:07:39.714Z,38.78
2019-03-06T19:10:34.504Z,38.85
2019-03-06T19:13:29.938Z,39.00
2019-03-06T19:16:25.944Z,40.50
2019-03-06T19:19:21.417Z,40.98
2019-03-06T19:22:16.812Z,40.92
2019-03-06T19:25:12.961Z,42.85
2019-03-06T19:28:08.551Z,44.20
2019-03-06T19:31:03.909Z,43.00
2019-03-06T19:33:58.945Z,45.03
2019-03-06T19:36:53.943Z,44.15
2019-03-06T19:39:48.898Z,43.08
2019-03-06T19:42:43.833Z,43.20
2019-03-06T19:45:38.889Z,42.62
2019-03-06T19:48:33.675Z,42.38
2019-03-06T19:51:28.615Z,42.43
2019-03-06T19:54:23.581Z,42.88
2019-03-06T19:57:18.923Z,43.00
2019-03-06T20:00:14.649Z,42.53
2019-03-06T20:03:11.026Z,42.93
2019-03-06T20:06:06.629Z,41.73
2019-03-06T20:09:01.454Z,43.08
2019-03-06T20:11:56.950Z,42.33
2019-03-06T20:14:52.143Z,44.45
2019-03-06T20:17:48.293Z,44.10
2019-03-06T20:20:43.316Z,44.53
2019-03-06T20:23:39.129Z,43.52
2019-03-06T20:26:34.099Z,44.13
2019-03-06T20:29:28.885Z,45.70
2019-03-06T20:32:24.040Z,44.48
2019-03-06T20:35:21.524Z,44.83
2019-03-06T20:38:16.451Z,45.23
2019-03-06T20:41:11.824Z,44.23
2019-03-06T20:44:07.454Z,46.50
2019-03-06T20:47:02.639Z,45.17
2019-03-06T20:49:58.231Z,42.55
2019-03-06T20:52:53.253Z,41.55
2019-03-06T20:55:48.485Z,41.20
2019-03-06T20:58:43.635Z,39.67
2019-03-06T21:01:38.902Z,38.15
2019-03-06T21:04:33.797Z,37.65
2019-03-06T21:07:28.683Z,36.60
2019-03-06T21:10:24.262Z,37.50
2019-03-06T21:13:19.997Z,37.40
2019-03-06T21:16:15.320Z,39.03
2019-03-06T21:19:10.468Z,38.92
2019-03-06T21:22:05.450Z,38.15
2019-03-06T21:25:00.833Z,31.20
2019-03-06T21:27:55.887Z,26.10
2019-03-06T21:30:50.965Z,24.02
2019-03-06T21:33:46.067Z,23.22
2019-03-06T21:36:41.213Z,21.52
2019-03-06T21:39:36.761Z,20.60
2019-03-06T21:42:31.773Z,20.82
2019-03-06T21:45:26.594Z,21.25
2019-03-06T21:48:21.112Z,19.50
2019-03-06T21:51:16.436Z,19.40
2019-03-06T21:54:11.504Z,18.32
2019-03-06T21:57:06.502Z,17.60
2019-03-06T22:00:01.612Z,18.15
2019-03-06T22:02:56.897Z,18.12
2019-03-06T22:05:51.823Z,17.37
2019-03-06T22:08:46.785Z,16.62
2019-03-06T22:11:41.953Z,16.57
2019-03-06T22:14:36.944Z,17.82
2019-03-06T22:17:32.096Z,17.23
2019-03-06T22:20:27.299Z,17.37
2019-03-06T22:23:22.659Z,16.95
2019-03-06T22:26:17.508Z,18.12
2019-03-06T22:29:12.885Z,16.27
2019-03-06T22:32:07.929Z,16.35
2019-03-06T22:35:03.249Z,16.65
2019-03-06T22:37:58.670Z,15.63
2019-03-06T22:40:54.512Z,15.75
2019-03-06T22:43:49.601Z,15.45
2019-03-06T22:46:44.485Z,15.70
2019-03-06T22:49:39.633Z,15.43
2019-03-06T22:52:34.473Z,16.75
2019-03-06T22:55:29.931Z,16.97
2019-03-06T22:58:25.010Z,16.97
2019-03-06T23:01:39.106Z,15.28
2019-03-06T23:04:34.366Z,18.95
2019-03-06T23:07:29.252Z,15.50
2019-03-06T23:10:24.471Z,16.93
2019-03-06T23:13:19.871Z,15.70
2019-03-06T23:16:14.717Z,16.90
2019-03-06T23:19:09.499Z,15.98
2019-03-06T23:22:04.501Z,16.80
2019-03-06T23:24:59.405Z,15.55
2019-03-06T23:27:54.815Z,17.00
2019-03-06T23:30:49.861Z,17.82
2019-03-06T23:33:44.797Z,17.15
2019-03-06T23:36:39.791Z,17.30
2019-03-06T23:39:34.786Z,17.82
2019-03-06T23:42:30.275Z,17.12
2019-03-06T23:45:25.427Z,18.07
2019-03-06T23:48:20.251Z,18.40
2019-03-06T23:51:22.872Z,17.70
2019-03-06T23:54:19.402Z,17.07
2019-03-06T23:57:13.226Z,17.48
